Sunday, February 14, 2016
01:54 UTC
  |  Log In   |  Register Free
Airport Search:

Coleman Municipal Airport
(KCOM)

Coleman Municipal Airport Diagram
No Airport Diagram Available

FAA data valid effective Feb 4 2016 - Mar 31 2016 (unless otherwise noted).

 
 
 
 
 
 
 
 
 
 
 
 
 
 
Current Aviation Weather for KCOM

Weather Summary


The most recent METAR observation for COM was updated at: 12:55 UTC
METAR for KCOM is not available. Closest METAR is for KBWD
KCOM  (most recent observation was updatred at 14:01 UTC)
140135Z AUTO 16008KT 10SM CLR 17/04 A3008 RMK AO2 T01660043

KBWD  (23.0 nm NW)   (most recent observation was updated at 14:01 UTC)
140135Z AUTO 14011KT 10SM CLR 18/08 A3009 RMK AO2

TAF for KCOM is not available.
GlobalAir.com is loading additional information.
 Current Weather at COM
73.0 F° (22.5 C°)

South winds at 9.2 mph
Pressure:
30.09 in
Humidity:
33%
Wind:
South at 9.2 mph
Dew Point:
41.4 F° (5.2 C°)
Visibility:
10.00 mi
COM NOAA Radar




Find All Airport Services Find A Hotel Find A Rental Car Find A Golf Course Find A Restaurant $100 Hamburger



Airport Weather Forecast for KCOM

Translated METAR for KCOM (0135 UTC)
METAR:
KCOM 140135Z AUTO 16008KT 10SM CLR 17/04 A3008 RMK AO2 T01660043
Conditions at:
KCOM (Coleman Muni, TX) observed 0135 UTC 13 February 2016
Temperature:
17°C (62.6°F)
Dewpoint:
4°C (39.2°F) [RH = 42]
Pressure:
30.08 inches Hg (1018.6 mb)
Winds:
from the SSE (160 degrees) at 9.2 mph (8 knots: 4.1 m/s)
Visibility:
10 mile(s)
Ceiling:
at least 12,000 feet AGL
Clouds:
Clear below 12,000 feet AGL
Remarks:
site is un-manned
site is automated and HAS a precipitation sensor

Translated TAF for TAF for COM is not available. Refer to local area forecast.
FBO's on the Field
FBO Company Facility Photos Services Transportation Aviation Fuel Prices: Prices include tax
Catering Weather Repair Courtesy Rental Type 100LL JetA JetA+ MOGAS 8087
 
Add another FBO Facility Photos Catering Weather Repair Courtesy Rental Type 100LL JetA JetA+ MOGAS 8087
Services Transportation Aviation Fuel Prices: Prices include tax
There are no FBO's currently reporting fuel at COM. List your FBO now


model-print
model-print
model-print
model-print